Orange Beach, AL (36561)

12:42 AM CDT on July 25, 2016 (GMT -0500)
Republic of Brentorious | | Change Station

Elev 23 ft 30.28 °N, 87.56 °W | Updated 30 seconds ago

Clear
Clear
85.1 °F
Feels Like 97 °F
N
6.9
Wind Variable Wind from SE
Gusts 11.0 mph

Today
High -- | Low -- °F
--% Chance of Precip.
Yesterday
High -- | Low -- °F
Precip. -- in
Pressure 29.97 in
Visibility 10.0 miles
Clouds Clear
Heat Index 97 °F
Dew Point 78 °F
Humidity 80%
Rainfall 0.00 in
Snow Depth Not available.
6:04 AM 7:48 PM
Waning Gibbous, 69% visible
METAR KJKA 250535Z AUTO 16004KT 10SM CLR 26/25 A2997 RMK AO2 T02610247
Pressure 29.97 in
Visibility 10.0 miles
Clouds Clear
Heat Index 97 °F
Dew Point 78 °F
Humidity 80%
Rainfall 0.00 in
Snow Depth Not available.
6:04 AM 7:48 PM
Waning Gibbous, 69% visible
METAR KJKA 250535Z AUTO 16004KT 10SM CLR 26/25 A2997 RMK AO2 T02610247

10-Day Weather Forecast

Almanac

Astronomy

Jul. 25, 2016 Rise Set
Actual Time
Civil Twilight
Nautical Twilight
Astronomical Twilight
Moon
Length of Visible Light
Length of Day
Tomorrow will be .
, % of the Moon is Illuminated

Today's Extremes

State Highs State Lows

Community

WunderPhotos

Upload Photos

1,927,274 photos uploaded!

WunderBlog® & News

Nearby

Air Quality

  Air Quality AQ Index Pollutant
Not available.

Snow Depth

Station Depth Elevation

Earthquake Activity

City Distance Mag. Time & Date
Minimum magnitude displayed is 2.5.

Coastal Water Temperatures

Place Temperature

Stations

Nearby Weather Stations

Station Location Temp. Windchill Dew Point Humidity Wind Precip. Elev Updated Type
                   

Watches & Warnings

There are currently no watches in effect.